APRS [IN62JS], 0 Stunde(n), DL3EL [06:56:40, 0s].
EA1FGK 42.45.37N 007.14.31WIN62JS 2.943km 237°WSW04:31:25ZRASBERRY PI 432.4750/432.4750 CC1
EA1IOK 42.34.37N 007.32.92WIN62FN 35.464km 232°SW04:49:53ZMMDVM MMDVM HS Hat 430.4000/430.4000 CC1
Yaesu DMO with EA7EE Sofware(2EA1IOK-6)
EA1GUI 42.31.80N 007.30.25WIN62FM 36.093km 222°SW04:31:13ZMMDVM MMDVM HS Hat 430.4000/430.4000 CC1
LEBO 43.01.62N 006.53.05WIN63NA 38.840km 43°NE04:30:04ZHelipuerto de Ibias: LEAS 130400Z 14004KT 080V170 2000 BR FEW001 BKN002 16/16 Q1021 NOSIG=
27D00 43.00.64N 007.33.47WIN63FA 39.032km 313°NW04:01:27Z27-D-00 Protección Civil REMER / Subdelegación del Gobierno en Lugo
EA1GEC 43.00.71N 007.33.95WIN63FA 39.585km 313°NW04:32:20ZMMDVM DVMega 438.5750/438.5750 CC1
EA1DLB 43.00.78N 007.34.07WIN63FA 39.805km 313°NW04:33:16Z440 Voice 431.07500MHz +0.0000MHz(3EA1DLB-B)
MMDVM MMDVM HS Dual Hat 438.2750/430.6750 CC1(2EA1DLB)
EA1GUJ 43.00.67N 007.34.26WIN63FA 39.847km 312°NW04:35:19ZMMDVM DMO 438.0250/438.0250 CC1
EA1HBW 42.23.99N 007.05.99WIN62KJ 42.167km 168°SSE04:32:38ZMMDVM MMDVM HS Dual Hat 438.6000/431.0000 CC1
EA1GTX 42.24.83N 007.01.82WIN62LJ 42.271km 160°SSE04:34:11ZMMDVM DMO 439.9750/439.9750 CC1

aprs.pl 5.0.011w DL3EL © 2006-2021 [457186]